sensor_id;sensor_type;location;lat;lon;timestamp;pressure;altitude;pressure_sealevel;temperature;humidity
11038;BME280;5572;49.540;11.932;2024-02-21T00:00:22;97905.22;;;8.09;100.00
11038;BME280;5572;49.540;11.932;2024-02-21T00:02:50;97906.84;;;8.10;100.00
11038;BME280;5572;49.540;11.932;2024-02-21T00:05:16;97901.00;;;8.13;100.00
11038;BME280;5572;49.540;11.932;2024-02-21T00:07:43;97905.59;;;8.01;100.00
11038;BME280;5572;49.540;11.932;2024-02-21T00:10:09;97896.16;;;8.15;100.00
11038;BME280;5572;49.540;11.932;2024-02-21T00:12:36;97903.78;;;8.18;100.00
11038;BME280;5572;49.540;11.932;2024-02-21T00:15:05;97902.53;;;8.09;100.00
11038;BME280;5572;49.540;11.932;2024-02-21T00:17:32;97895.03;;;8.11;100.00
11038;BME280;5572;49.540;11.932;2024-02-21T00:19:58;97890.69;;;8.10;100.00
11038;BME280;5572;49.540;11.932;2024-02-21T00:22:25;97888.34;;;8.13;100.00
11038;BME280;5572;49.540;11.932;2024-02-21T00:24:54;97890.31;;;8.18;100.00
11038;BME280;5572;49.540;11.932;2024-02-21T00:27:20;97893.13;;;7.83;100.00
11038;BME280;5572;49.540;11.932;2024-02-21T00:29:47;97887.81;;;8.00;100.00
11038;BME280;5572;49.540;11.932;2024-02-21T00:32:15;97880.47;;;7.95;100.00
11038;BME280;5572;49.540;11.932;2024-02-21T00:34:42;97880.78;;;7.99;100.00
11038;BME280;5572;49.540;11.932;2024-02-21T00:37:08;97878.09;;;7.99;100.00
11038;BME280;5572;49.540;11.932;2024-02-21T00:39:35;97873.50;;;7.99;100.00
11038;BME280;5572;49.540;11.932;2024-02-21T00:42:02;97874.94;;;8.02;100.00
11038;BME280;5572;49.540;11.932;2024-02-21T00:44:29;97877.78;;;7.84;100.00
11038;BME280;5572;49.540;11.932;2024-02-21T00:46:55;97873.69;;;7.93;100.00
11038;BME280;5572;49.540;11.932;2024-02-21T00:49:23;97862.91;;;7.93;100.00
11038;BME280;5572;49.540;11.932;2024-02-21T00:51:50;97863.09;;;8.03;100.00
11038;BME280;5572;49.540;11.932;2024-02-21T00:54:16;97861.63;;;7.95;100.00
11038;BME280;5572;49.540;11.932;2024-02-21T00:56:43;97861.09;;;7.82;100.00
11038;BME280;5572;49.540;11.932;2024-02-21T00:59:09;97864.44;;;7.89;100.00
11038;BME280;5572;49.540;11.932;2024-02-21T01:01:36;97861.34;;;7.97;100.00
11038;BME280;5572;49.540;11.932;2024-02-21T01:04:03;97861.31;;;7.80;100.00
11038;BME280;5572;49.540;11.932;2024-02-21T01:06:31;97859.78;;;7.84;100.00
11038;BME280;5572;49.540;11.932;2024-02-21T01:08:57;97861.75;;;7.89;100.00
11038;BME280;5572;49.540;11.932;2024-02-21T01:11:24;97859.50;;;7.97;100.00
11038;BME280;5572;49.540;11.932;2024-02-21T01:13:50;97853.47;;;7.79;100.00
11038;BME280;5572;49.540;11.932;2024-02-21T01:16:17;97859.13;;;7.77;100.00
11038;BME280;5572;49.540;11.932;2024-02-21T01:18:44;97852.44;;;7.80;100.00
11038;BME280;5572;49.540;11.932;2024-02-21T01:21:10;97857.69;;;7.75;100.00
11038;BME280;5572;49.540;11.932;2024-02-21T01:23:38;97840.50;;;7.76;100.00
11038;BME280;5572;49.540;11.932;2024-02-21T01:26:05;97853.03;;;7.70;100.00
11038;BME280;5572;49.540;11.932;2024-02-21T01:28:33;97847.56;;;7.66;100.00
11038;BME280;5572;49.540;11.932;2024-02-21T01:31:00;97844.81;;;7.77;100.00
11038;BME280;5572;49.540;11.932;2024-02-21T01:33:26;97842.59;;;7.74;100.00
11038;BME280;5572;49.540;11.932;2024-02-21T01:35:53;97840.50;;;7.76;100.00
11038;BME280;5572;49.540;11.932;2024-02-21T01:38:19;97836.53;;;7.78;100.00
11038;BME280;5572;49.540;11.932;2024-02-21T01:40:47;97835.69;;;7.78;100.00
11038;BME280;5572;49.540;11.932;2024-02-21T01:43:18;97828.94;;;7.75;100.00
11038;BME280;5572;49.540;11.932;2024-02-21T01:45:47;97818.22;;;7.92;100.00
11038;BME280;5572;49.540;11.932;2024-02-21T01:48:15;97820.94;;;7.80;100.00
11038;BME280;5572;49.540;11.932;2024-02-21T01:50:43;97815.53;;;7.92;100.00
11038;BME280;5572;49.540;11.932;2024-02-21T01:53:10;97818.03;;;7.82;100.00
11038;BME280;5572;49.540;11.932;2024-02-21T01:55:43;97812.78;;;7.75;100.00
11038;BME280;5572;49.540;11.932;2024-02-21T01:58:11;97800.81;;;7.83;100.00
11038;BME280;5572;49.540;11.932;2024-02-21T02:00:39;97807.81;;;7.84;100.00
11038;BME280;5572;49.540;11.932;2024-02-21T02:03:07;97806.28;;;7.88;100.00
11038;BME280;5572;49.540;11.932;2024-02-21T02:05:35;97800.44;;;7.63;100.00
11038;BME280;5572;49.540;11.932;2024-02-21T02:08:02;97801.91;;;7.70;100.00
11038;BME280;5572;49.540;11.932;2024-02-21T02:10:28;97799.91;;;7.77;100.00
11038;BME280;5572;49.540;11.932;2024-02-21T02:12:55;97789.63;;;7.74;100.00
11038;BME280;5572;49.540;11.932;2024-02-21T02:15:23;97788.13;;;7.67;100.00
11038;BME280;5572;49.540;11.932;2024-02-21T02:17:50;97787.31;;;7.67;100.00
11038;BME280;5572;49.540;11.932;2024-02-21T02:20:16;97778.13;;;7.79;100.00
11038;BME280;5572;49.540;11.932;2024-02-21T02:22:43;97776.41;;;7.73;100.00
11038;BME280;5572;49.540;11.932;2024-02-21T02:25:13;97777.03;;;7.64;100.00
11038;BME280;5572;49.540;11.932;2024-02-21T02:27:43;97782.88;;;7.61;100.00
11038;BME280;5572;49.540;11.932;2024-02-21T02:30:11;97777.16;;;7.68;100.00
11038;BME280;5572;49.540;11.932;2024-02-21T02:32:38;97776.06;;;7.69;100.00
11038;BME280;5572;49.540;11.932;2024-02-21T02:35:05;97770.78;;;7.74;100.00
11038;BME280;5572;49.540;11.932;2024-02-21T02:37:31;97772.75;;;7.79;100.00
11038;BME280;5572;49.540;11.932;2024-02-21T02:39:58;97779.00;;;7.68;100.00
11038;BME280;5572;49.540;11.932;2024-02-21T02:42:26;97774.44;;;7.68;100.00
11038;BME280;5572;49.540;11.932;2024-02-21T02:44:52;97781.75;;;7.57;100.00
11038;BME280;5572;49.540;11.932;2024-02-21T02:47:19;97777.75;;;7.59;100.00
11038;BME280;5572;49.540;11.932;2024-02-21T02:49:45;97765.34;;;7.58;100.00
11038;BME280;5572;49.540;11.932;2024-02-21T02:52:16;97770.19;;;7.72;100.00
11038;BME280;5572;49.540;11.932;2024-02-21T02:54:42;97763.91;;;7.67;100.00
11038;BME280;5572;49.540;11.932;2024-02-21T02:57:09;97769.25;;;7.51;100.00
11038;BME280;5572;49.540;11.932;2024-02-21T02:59:37;97761.81;;;7.69;100.00
11038;BME280;5572;49.540;11.932;2024-02-21T03:02:03;97759.19;;;7.58;100.00
11038;BME280;5572;49.540;11.932;2024-02-21T03:04:30;97749.97;;;7.70;100.00
11038;BME280;5572;49.540;11.932;2024-02-21T03:06:56;97751.56;;;7.55;100.00
11038;BME280;5572;49.540;11.932;2024-02-21T03:09:23;97739.41;;;7.80;100.00
11038;BME280;5572;49.540;11.932;2024-02-21T03:11:49;97749.31;;;7.63;100.00
11038;BME280;5572;49.540;11.932;2024-02-21T03:14:16;97745.81;;;7.63;100.00
11038;BME280;5572;49.540;11.932;2024-02-21T03:16:44;97737.16;;;7.61;100.00
11038;BME280;5572;49.540;11.932;2024-02-21T03:19:10;97732.03;;;7.59;100.00
11038;BME280;5572;49.540;11.932;2024-02-21T03:21:37;97722.03;;;7.71;100.00
11038;BME280;5572;49.540;11.932;2024-02-21T03:24:04;97721.91;;;7.66;100.00
11038;BME280;5572;49.540;11.932;2024-02-21T03:26:31;97718.34;;;7.77;100.00
11038;BME280;5572;49.540;11.932;2024-02-21T03:28:58;97721.03;;;7.77;100.00
11038;BME280;5572;49.540;11.932;2024-02-21T03:31:24;97714.28;;;7.74;100.00
11038;BME280;5572;49.540;11.932;2024-02-21T03:33:52;97704.97;;;7.82;100.00
11038;BME280;5572;49.540;11.932;2024-02-21T03:36:19;97700.41;;;7.99;100.00
11038;BME280;5572;49.540;11.932;2024-02-21T03:38:45;97717.75;;;7.59;100.00
11038;BME280;5572;49.540;11.932;2024-02-21T03:41:13;97713.44;;;7.74;100.00
11038;BME280;5572;49.540;11.932;2024-02-21T03:43:39;97705.47;;;7.79;100.00
11038;BME280;5572;49.540;11.932;2024-02-21T03:46:06;97700.66;;;7.81;100.00
11038;BME280;5572;49.540;11.932;2024-02-21T03:48:33;97705.78;;;7.82;100.00
11038;BME280;5572;49.540;11.932;2024-02-21T03:51:01;97707.84;;;7.75;100.00
11038;BME280;5572;49.540;11.932;2024-02-21T03:53:27;97696.22;;;7.75;100.00
11038;BME280;5572;49.540;11.932;2024-02-21T03:55:54;97699.19;;;7.73;100.00
11038;BME280;5572;49.540;11.932;2024-02-21T03:58:21;97691.91;;;7.90;100.00
11038;BME280;5572;49.540;11.932;2024-02-21T04:00:48;97689.38;;;8.00;100.00
11038;BME280;5572;49.540;11.932;2024-02-21T04:03:15;97697.72;;;7.82;100.00
11038;BME280;5572;49.540;11.932;2024-02-21T04:05:41;97691.44;;;7.77;100.00
11038;BME280;5572;49.540;11.932;2024-02-21T08:34:30;97508.81;;;11.07;100.00
11038;BME280;5572;49.540;11.932;2024-02-21T08:37:01;97537.13;;;9.99;100.00
11038;BME280;5572;49.540;11.932;2024-02-21T08:58:52;97440.88;;;12.41;100.00
11038;BME280;5572;49.540;11.932;2024-02-21T09:01:36;97393.28;;;13.59;100.00
11038;BME280;5572;49.540;11.932;2024-02-21T09:04:10;97433.03;;;12.35;100.00
11038;BME280;5572;49.540;11.932;2024-02-21T09:06:56;97309.84;;;16.05;100.00
11038;BME280;5572;49.540;11.932;2024-02-21T09:09:32;97207.84;;;17.88;100.00
11038;BME280;5572;49.540;11.932;2024-02-21T09:15:36;97148.63;;;18.01;100.00
11038;BME280;5572;49.540;11.932;2024-02-21T09:21:24;97053.84;;;18.05;100.00
11038;BME280;5572;49.540;11.932;2024-02-21T09:24:08;97122.06;;;16.73;100.00
11038;BME280;5572;49.540;11.932;2024-02-21T09:33:37;97113.09;;;15.76;100.00
11038;BME280;5572;49.540;11.932;2024-02-21T09:36:22;97197.94;;;15.48;100.00
11038;BME280;5572;49.540;11.932;2024-02-21T09:53:05;97284.00;;;13.85;100.00
11038;BME280;5572;49.540;11.932;2024-02-21T10:09:28;97298.88;;;13.46;100.00
11038;BME280;5572;49.540;11.932;2024-02-21T10:11:55;97310.94;;;13.11;100.00
11038;BME280;5572;49.540;11.932;2024-02-21T10:14:22;97288.91;;;14.25;100.00
11038;BME280;5572;49.540;11.932;2024-02-21T10:16:56;97302.78;;;13.40;100.00
11038;BME280;5572;49.540;11.932;2024-02-21T10:19:23;97293.19;;;14.07;100.00
11038;BME280;5572;49.540;11.932;2024-02-21T10:22:01;97302.06;;;13.76;100.00
11038;BME280;5572;49.540;11.932;2024-02-21T10:24:30;97284.06;;;13.80;100.00
11038;BME280;5572;49.540;11.932;2024-02-21T10:26:59;97276.03;;;13.70;100.00
11038;BME280;5572;49.540;11.932;2024-02-21T10:29:26;97277.00;;;13.61;100.00
11038;BME280;5572;49.540;11.932;2024-02-21T10:32:04;97283.09;;;13.71;100.00
11038;BME280;5572;49.540;11.932;2024-02-21T10:34:30;97263.34;;;13.66;100.00
11038;BME280;5572;49.540;11.932;2024-02-21T10:37:00;97245.56;;;14.15;100.00
11038;BME280;5572;49.540;11.932;2024-02-21T10:39:27;97236.56;;;14.33;100.00
11038;BME280;5572;49.540;11.932;2024-02-21T10:41:58;97247.81;;;14.26;100.00
11038;BME280;5572;49.540;11.932;2024-02-21T10:44:27;97253.75;;;13.91;100.00
11038;BME280;5572;49.540;11.932;2024-02-21T10:46:55;97247.97;;;14.16;100.00
11038;BME280;5572;49.540;11.932;2024-02-21T10:49:23;97224.22;;;14.40;100.00
11038;BME280;5572;49.540;11.932;2024-02-21T10:51:55;97228.03;;;14.21;100.00
11038;BME280;5572;49.540;11.932;2024-02-21T10:54:31;97248.72;;;13.38;100.00
11038;BME280;5572;49.540;11.932;2024-02-21T10:57:06;97236.78;;;13.99;100.00
11038;BME280;5572;49.540;11.932;2024-02-21T10:59:34;97257.47;;;13.35;100.00
11038;BME280;5572;49.540;11.932;2024-02-21T11:02:03;97290.09;;;13.07;100.00
11038;BME280;5572;49.540;11.932;2024-02-21T11:04:31;97275.41;;;13.36;100.00
11038;BME280;5572;49.540;11.932;2024-02-21T11:06:58;97264.16;;;13.84;100.00
11038;BME280;5572;49.540;11.932;2024-02-21T11:09:30;97273.06;;;13.48;100.00
11038;BME280;5572;49.540;11.932;2024-02-21T11:11:57;97329.69;;;13.36;100.00
11038;BME280;5572;49.540;11.932;2024-02-21T11:14:27;97312.22;;;12.90;100.00
11038;BME280;5572;49.540;11.932;2024-02-21T11:16:53;97292.41;;;13.65;100.00
11038;BME280;5572;49.540;11.932;2024-02-21T11:19:22;97310.81;;;12.98;100.00
11038;BME280;5572;49.540;11.932;2024-02-21T11:21:49;97296.19;;;13.87;100.00
11038;BME280;5572;49.540;11.932;2024-02-21T11:24:25;97305.81;;;14.22;100.00
11038;BME280;5572;49.540;11.932;2024-02-21T11:26:53;97253.59;;;14.57;100.00
11038;BME280;5572;49.540;11.932;2024-02-21T11:29:23;97294.63;;;13.40;100.00
11038;BME280;5572;49.540;11.932;2024-02-21T11:31:51;97320.06;;;14.14;100.00
11038;BME280;5572;49.540;11.932;2024-02-21T11:34:18;97296.50;;;14.60;100.00
11038;BME280;5572;49.540;11.932;2024-02-21T11:36:49;97264.06;;;14.13;100.00
11038;BME280;5572;49.540;11.932;2024-02-21T11:39:23;97244.66;;;14.19;100.00
11038;BME280;5572;49.540;11.932;2024-02-21T11:42:03;97329.09;;;13.16;100.00
11038;BME280;5572;49.540;11.932;2024-02-21T11:44:31;97329.94;;;13.63;100.00
11038;BME280;5572;49.540;11.932;2024-02-21T11:46:59;97315.75;;;13.89;100.00
11038;BME280;5572;49.540;11.932;2024-02-21T11:49:26;97338.50;;;13.93;100.00
11038;BME280;5572;49.540;11.932;2024-02-21T11:52:02;97295.44;;;14.24;100.00
11038;BME280;5572;49.540;11.932;2024-02-21T11:54:29;97232.72;;;15.11;100.00
11038;BME280;5572;49.540;11.932;2024-02-21T11:56:56;97236.66;;;14.60;100.00
11038;BME280;5572;49.540;11.932;2024-02-21T11:59:22;97301.34;;;14.12;100.00
11038;BME280;5572;49.540;11.932;2024-02-21T12:01:49;97269.13;;;14.19;100.00
11038;BME280;5572;49.540;11.932;2024-02-21T12:04:18;97317.97;;;13.41;100.00
11038;BME280;5572;49.540;11.932;2024-02-21T12:06:45;97281.28;;;14.27;100.00
11038;BME280;5572;49.540;11.932;2024-02-21T12:09:14;97251.78;;;14.34;100.00
11038;BME280;5572;49.540;11.932;2024-02-21T12:11:40;97244.88;;;14.23;100.00
11038;BME280;5572;49.540;11.932;2024-02-21T12:14:07;97257.44;;;14.00;100.00
11038;BME280;5572;49.540;11.932;2024-02-21T12:16:34;97298.34;;;14.09;100.00
11038;BME280;5572;49.540;11.932;2024-02-21T12:19:02;97248.22;;;14.97;100.00
11038;BME280;5572;49.540;11.932;2024-02-21T12:21:32;97206.84;;;14.68;100.00
11038;BME280;5572;49.540;11.932;2024-02-21T12:24:11;97239.47;;;13.81;100.00
11038;BME280;5572;49.540;11.932;2024-02-21T12:26:38;97257.38;;;14.42;100.00
11038;BME280;5572;49.540;11.932;2024-02-21T12:29:04;97192.53;;;14.76;100.00
11038;BME280;5572;49.540;11.932;2024-02-21T12:31:31;97216.41;;;14.52;100.00
11038;BME280;5572;49.540;11.932;2024-02-21T12:33:57;97201.22;;;14.78;100.00
11038;BME280;5572;49.540;11.932;2024-02-21T12:36:25;97238.09;;;13.83;100.00
11038;BME280;5572;49.540;11.932;2024-02-21T12:38:53;97240.13;;;14.15;100.00
11038;BME280;5572;49.540;11.932;2024-02-21T12:41:20;97265.63;;;13.95;100.00
11038;BME280;5572;49.540;11.932;2024-02-21T12:43:46;97299.53;;;14.03;100.00
11038;BME280;5572;49.540;11.932;2024-02-21T12:46:13;97264.97;;;14.03;100.00
11038;BME280;5572;49.540;11.932;2024-02-21T12:48:40;97272.78;;;13.91;100.00
11038;BME280;5572;49.540;11.932;2024-02-21T12:51:06;97292.69;;;13.87;100.00
11038;BME280;5572;49.540;11.932;2024-02-21T12:53:33;97247.88;;;14.03;100.00
11038;BME280;5572;49.540;11.932;2024-02-21T12:56:01;97219.28;;;14.42;100.00
11038;BME280;5572;49.540;11.932;2024-02-21T12:58:30;97185.69;;;14.33;100.00
11038;BME280;5572;49.540;11.932;2024-02-21T13:00:57;97181.03;;;14.52;100.00
11038;BME280;5572;49.540;11.932;2024-02-21T13:03:23;97151.38;;;14.51;100.00
11038;BME280;5572;49.540;11.932;2024-02-21T13:05:50;97141.94;;;14.75;100.00
11038;BME280;5572;49.540;11.932;2024-02-21T13:08:17;97191.63;;;14.67;100.00
11038;BME280;5572;49.540;11.932;2024-02-21T13:10:47;97257.13;;;14.70;100.00
11038;BME280;5572;49.540;11.932;2024-02-21T13:13:15;97159.69;;;14.99;100.00
11038;BME280;5572;49.540;11.932;2024-02-21T13:15:42;97151.03;;;15.11;100.00
11038;BME280;5572;49.540;11.932;2024-02-21T13:18:09;97158.13;;;14.53;100.00
11038;BME280;5572;49.540;11.932;2024-02-21T13:20:35;97190.53;;;14.36;100.00
11038;BME280;5572;49.540;11.932;2024-02-21T13:23:02;97177.66;;;15.14;100.00
11038;BME280;5572;49.540;11.932;2024-02-21T13:25:29;97202.94;;;14.87;100.00
11038;BME280;5572;49.540;11.932;2024-02-21T13:27:55;97166.78;;;14.42;100.00
11038;BME280;5572;49.540;11.932;2024-02-21T13:30:23;97144.81;;;14.38;100.00
11038;BME280;5572;49.540;11.932;2024-02-21T13:32:51;97182.19;;;14.46;100.00
11038;BME280;5572;49.540;11.932;2024-02-21T13:35:17;97188.50;;;14.73;100.00
11038;BME280;5572;49.540;11.932;2024-02-21T13:37:44;97120.56;;;14.55;100.00
11038;BME280;5572;49.540;11.932;2024-02-21T13:40:11;97157.81;;;14.41;100.00
11038;BME280;5572;49.540;11.932;2024-02-21T13:42:39;97154.44;;;14.89;100.00
11038;BME280;5572;49.540;11.932;2024-02-21T13:45:07;97173.13;;;14.37;100.00
11038;BME280;5572;49.540;11.932;2024-02-21T13:47:35;97168.91;;;14.45;100.00
11038;BME280;5572;49.540;11.932;2024-02-21T13:50:04;97196.09;;;14.13;100.00
11038;BME280;5572;49.540;11.932;2024-02-21T13:52:34;97195.03;;;14.27;100.00
11038;BME280;5572;49.540;11.932;2024-02-21T13:55:00;97221.25;;;14.00;100.00
11038;BME280;5572;49.540;11.932;2024-02-21T13:57:28;97232.50;;;13.93;100.00
11038;BME280;5572;49.540;11.932;2024-02-21T13:59:55;97198.88;;;13.89;100.00
11038;BME280;5572;49.540;11.932;2024-02-21T14:02:22;97176.34;;;14.39;100.00
11038;BME280;5572;49.540;11.932;2024-02-21T14:04:49;97175.47;;;14.57;100.00
11038;BME280;5572;49.540;11.932;2024-02-21T14:07:16;97199.22;;;14.38;100.00
11038;BME280;5572;49.540;11.932;2024-02-21T14:09:43;97245.19;;;14.85;100.00
11038;BME280;5572;49.540;11.932;2024-02-21T14:12:10;97199.91;;;14.75;100.00
11038;BME280;5572;49.540;11.932;2024-02-21T14:14:37;97225.91;;;14.36;100.00
11038;BME280;5572;49.540;11.932;2024-02-21T14:17:04;97290.84;;;14.56;100.00
11038;BME280;5572;49.540;11.932;2024-02-21T14:19:30;97234.44;;;14.30;100.00
11038;BME280;5572;49.540;11.932;2024-02-21T14:21:58;97239.03;;;13.92;100.00
11038;BME280;5572;49.540;11.932;2024-02-21T14:24:25;97272.13;;;14.55;100.00
11038;BME280;5572;49.540;11.932;2024-02-21T14:26:53;97279.03;;;14.29;100.00
11038;BME280;5572;49.540;11.932;2024-02-21T14:29:20;97225.94;;;14.50;100.00
11038;BME280;5572;49.540;11.932;2024-02-21T14:31:46;97211.03;;;14.47;100.00
11038;BME280;5572;49.540;11.932;2024-02-21T14:34:13;97305.47;;;14.05;100.00
11038;BME280;5572;49.540;11.932;2024-02-21T14:36:40;97278.06;;;14.01;100.00
11038;BME280;5572;49.540;11.932;2024-02-21T14:39:08;97373.03;;;13.93;100.00
11038;BME280;5572;49.540;11.932;2024-02-21T14:41:35;97362.47;;;14.33;100.00
11038;BME280;5572;49.540;11.932;2024-02-21T14:44:02;97311.59;;;14.15;100.00
11038;BME280;5572;49.540;11.932;2024-02-21T14:46:28;97385.69;;;13.79;100.00
11038;BME280;5572;49.540;11.932;2024-02-21T14:48:55;97395.81;;;13.73;100.00
11038;BME280;5572;49.540;11.932;2024-02-21T14:51:22;97360.78;;;13.72;100.00
11038;BME280;5572;49.540;11.932;2024-02-21T14:53:48;97433.09;;;13.68;100.00
11038;BME280;5572;49.540;11.932;2024-02-21T14:56:16;97406.78;;;13.64;100.00
11038;BME280;5572;49.540;11.932;2024-02-21T14:58:43;97445.09;;;13.67;100.00
11038;BME280;5572;49.540;11.932;2024-02-21T15:01:12;97426.75;;;13.54;100.00
11038;BME280;5572;49.540;11.932;2024-02-21T15:03:39;97440.00;;;13.61;100.00
11038;BME280;5572;49.540;11.932;2024-02-21T15:06:05;97485.16;;;13.52;100.00
11038;BME280;5572;49.540;11.932;2024-02-21T15:08:32;97491.25;;;13.39;100.00
11038;BME280;5572;49.540;11.932;2024-02-21T15:10:59;97484.19;;;13.38;100.00
11038;BME280;5572;49.540;11.932;2024-02-21T15:13:27;97501.66;;;13.27;100.00
11038;BME280;5572;49.540;11.932;2024-02-21T15:15:55;97425.25;;;13.38;100.00
11038;BME280;5572;49.540;11.932;2024-02-21T15:18:22;97468.06;;;13.18;100.00
11038;BME280;5572;49.540;11.932;2024-02-21T15:20:49;97447.88;;;13.29;100.00
11038;BME280;5572;49.540;11.932;2024-02-21T15:23:15;97447.50;;;13.12;100.00
11038;BME280;5572;49.540;11.932;2024-02-21T15:25:43;97483.03;;;13.10;100.00
11038;BME280;5572;49.540;11.932;2024-02-21T15:28:09;97480.94;;;13.02;100.00
11038;BME280;5572;49.540;11.932;2024-02-21T15:30:39;97479.56;;;13.05;100.00
11038;BME280;5572;49.540;11.932;2024-02-21T15:33:06;97456.81;;;12.96;100.00
11038;BME280;5572;49.540;11.932;2024-02-21T15:35:32;97452.28;;;12.82;100.00
11038;BME280;5572;49.540;11.932;2024-02-21T15:37:59;97514.41;;;12.83;100.00
11038;BME280;5572;49.540;11.932;2024-02-21T15:40:25;97454.72;;;12.83;100.00
11038;BME280;5572;49.540;11.932;2024-02-21T15:42:52;97481.00;;;12.92;100.00
11038;BME280;5572;49.540;11.932;2024-02-21T15:45:19;97505.56;;;12.63;100.00
11038;BME280;5572;49.540;11.932;2024-02-21T15:47:47;97528.00;;;12.73;100.00
11038;BME280;5572;49.540;11.932;2024-02-21T15:50:13;97528.59;;;12.70;100.00
11038;BME280;5572;49.540;11.932;2024-02-21T15:52:40;97484.28;;;12.36;100.00
11038;BME280;5572;49.540;11.932;2024-02-21T15:55:07;97542.78;;;12.47;100.00
11038;BME280;5572;49.540;11.932;2024-02-21T15:57:37;97566.13;;;12.43;100.00
11038;BME280;5572;49.540;11.932;2024-02-21T16:00:05;97600.56;;;12.38;100.00
11038;BME280;5572;49.540;11.932;2024-02-21T16:02:31;97541.53;;;12.20;100.00
11038;BME280;5572;49.540;11.932;2024-02-21T16:04:59;97575.44;;;12.12;100.00
11038;BME280;5572;49.540;11.932;2024-02-21T16:07:26;97662.16;;;12.07;100.00
11038;BME280;5572;49.540;11.932;2024-02-21T22:12:55;96507.56;;;9.83;100.00
11038;BME280;5572;49.540;11.932;2024-02-21T22:15:21;96494.88;;;9.84;100.00
11038;BME280;5572;49.540;11.932;2024-02-21T22:17:48;96485.78;;;9.75;100.00
11038;BME280;5572;49.540;11.932;2024-02-21T22:20:14;96466.91;;;9.98;100.00
11038;BME280;5572;49.540;11.932;2024-02-21T22:22:47;96452.81;;;9.78;100.00
11038;BME280;5572;49.540;11.932;2024-02-21T22:25:13;96441.13;;;9.87;100.00
11038;BME280;5572;49.540;11.932;2024-02-21T22:27:40;96475.28;;;9.97;100.00
11038;BME280;5572;49.540;11.932;2024-02-21T22:30:09;96465.03;;;9.99;100.00
11038;BME280;5572;49.540;11.932;2024-02-21T22:32:36;96458.22;;;9.78;100.00
11038;BME280;5572;49.540;11.932;2024-02-21T22:35:04;96470.94;;;9.77;100.00
11038;BME280;5572;49.540;11.932;2024-02-21T22:37:30;96468.50;;;9.76;100.00
11038;BME280;5572;49.540;11.932;2024-02-21T22:39:57;96479.03;;;9.77;100.00
11038;BME280;5572;49.540;11.932;2024-02-21T22:42:24;96483.41;;;9.68;100.00
11038;BME280;5572;49.540;11.932;2024-02-21T22:44:50;96462.44;;;9.60;100.00
11038;BME280;5572;49.540;11.932;2024-02-21T22:47:18;96460.84;;;9.59;100.00
11038;BME280;5572;49.540;11.932;2024-02-21T22:49:45;96439.22;;;9.64;100.00
11038;BME280;5572;49.540;11.932;2024-02-21T22:52:12;96433.47;;;9.71;100.00
11038;BME280;5572;49.540;11.932;2024-02-21T22:54:38;96405.16;;;9.68;100.00
11038;BME280;5572;49.540;11.932;2024-02-21T22:57:05;96402.94;;;9.75;100.00
11038;BME280;5572;49.540;11.932;2024-02-21T22:59:32;96401.72;;;9.86;100.00
11038;BME280;5572;49.540;11.932;2024-02-21T23:01:59;96382.34;;;9.79;100.00
11038;BME280;5572;49.540;11.932;2024-02-21T23:04:26;96405.09;;;9.73;100.00
11038;BME280;5572;49.540;11.932;2024-02-21T23:06:53;96402.19;;;9.70;100.00
11038;BME280;5572;49.540;11.932;2024-02-21T23:09:20;96406.31;;;9.62;100.00
11038;BME280;5572;49.540;11.932;2024-02-21T23:11:47;96391.66;;;9.68;100.00
11038;BME280;5572;49.540;11.932;2024-02-21T23:14:13;96382.44;;;9.51;100.00
11038;BME280;5572;49.540;11.932;2024-02-21T23:16:40;96413.47;;;9.48;100.00
11038;BME280;5572;49.540;11.932;2024-02-21T23:19:06;96406.72;;;9.51;100.00
11038;BME280;5572;49.540;11.932;2024-02-21T23:21:35;96408.88;;;9.49;100.00
11038;BME280;5572;49.540;11.932;2024-02-21T23:24:02;96407.69;;;9.60;100.00
11038;BME280;5572;49.540;11.932;2024-02-21T23:26:29;96391.44;;;9.41;100.00
11038;BME280;5572;49.540;11.932;2024-02-21T23:28:56;96375.66;;;9.53;100.00
11038;BME280;5572;49.540;11.932;2024-02-21T23:31:23;96389.72;;;9.50;100.00
11038;BME280;5572;49.540;11.932;2024-02-21T23:33:50;96389.03;;;9.40;100.00
11038;BME280;5572;49.540;11.932;2024-02-21T23:36:16;96392.34;;;9.32;100.00
11038;BME280;5572;49.540;11.932;2024-02-21T23:38:44;96375.41;;;9.27;100.00
11038;BME280;5572;49.540;11.932;2024-02-21T23:41:14;96376.00;;;9.47;100.00
11038;BME280;5572;49.540;11.932;2024-02-21T23:43:42;96379.78;;;9.46;100.00
11038;BME280;5572;49.540;11.932;2024-02-21T23:46:09;96375.34;;;9.32;100.00
11038;BME280;5572;49.540;11.932;2024-02-21T23:48:36;96372.84;;;9.12;100.00
11038;BME280;5572;49.540;11.932;2024-02-21T23:51:02;96374.66;;;9.21;100.00
11038;BME280;5572;49.540;11.932;2024-02-21T23:53:29;96366.03;;;9.19;100.00
11038;BME280;5572;49.540;11.932;2024-02-21T23:55:57;96381.94;;;9.21;100.00
11038;BME280;5572;49.540;11.932;2024-02-21T23:58:25;96370.88;;;9.22;100.00
